Time;durP1;ratioP1;P1;durP2;ratioP2;P2;SDS_P1;SDS_P2;PMS_P1;PMS_P2;Temp;Humidity;BMP_temperature;BMP_pressure;BME280_temperature;BME280_humidity;BME280_pressure;Samples;Min_cycle;Max_cycle;Signal;HPM_P1;HPM_P2
2021/07/20 00:02:32;;;;;;;24.30;22.20;;;24.80;99.70;;;;;;3551272;40;20485;-61
2021/07/20 00:04:59;;;;;;;24.27;22.07;;;24.80;99.60;;;;;;3558857;40;20461;-61
2021/07/20 00:07:26;;;;;;;22.10;20.20;;;24.70;99.60;;;;;;3563025;40;20472;-60
2021/07/20 00:09:56;;;;;;;23.80;21.80;;;24.80;99.70;;;;;;3562919;40;20465;-59
2021/07/20 00:12:23;;;;;;;24.00;21.83;;;24.80;99.70;;;;;;3563792;40;20476;-59
2021/07/20 00:14:50;;;;;;;21.77;19.87;;;24.80;99.70;;;;;;3554618;40;20456;-60
2021/07/20 00:17:21;;;;;;;22.20;20.30;;;24.80;99.70;;;;;;3560855;40;20539;-60
2021/07/20 00:19:51;;;;;;;22.93;20.93;;;24.80;99.60;;;;;;3554400;40;20465;-61
2021/07/20 00:22:19;;;;;;;23.63;21.30;;;24.80;99.60;;;;;;3554361;40;20457;-61
2021/07/20 00:24:46;;;;;;;24.93;22.73;;;24.80;99.60;;;;;;3554592;40;20891;-61
2021/07/20 00:27:13;;;;;;;23.37;21.27;;;24.80;99.60;;;;;;3563610;40;20457;-61
2021/07/20 00:29:51;;;;;;;24.17;22.00;;;24.80;99.60;;;;;;3563714;40;20460;-61
2021/07/20 00:32:18;;;;;;;24.20;22.10;;;24.80;99.60;;;;;;3559973;40;20922;-62
2021/07/20 00:34:45;;;;;;;24.17;21.57;;;24.70;99.50;;;;;;3564377;40;20465;-62
2021/07/20 00:37:14;;;;;;;22.83;20.70;;;24.70;99.50;;;;;;3564500;40;20457;-60
2021/07/20 00:39:41;;;;;;;25.47;22.87;;;24.70;99.50;;;;;;3563790;40;20441;-62
2021/07/20 00:42:09;;;;;;;22.73;20.70;;;24.70;99.50;;;;;;3564473;40;20805;-62
2021/07/20 00:44:37;;;;;;;23.23;21.10;;;24.70;99.50;;;;;;3555293;40;20464;-61
2021/07/20 00:47:04;;;;;;;24.67;22.37;;;24.70;99.50;;;;;;3555384;40;20578;-61
2021/07/20 00:49:33;;;;;;;23.83;21.70;;;24.70;99.50;;;;;;3563690;40;20471;-61
2021/07/20 00:52:03;;;;;;;23.07;20.77;;;24.70;99.50;;;;;;3564221;40;20472;-61
2021/07/20 00:54:32;;;;;;;24.37;22.17;;;24.70;99.50;;;;;;3556235;40;20475;-61
2021/07/20 00:57:02;;;;;;;23.63;21.63;;;24.70;99.50;;;;;;3556183;40;20461;-61
2021/07/20 00:59:33;;;;;;;23.50;21.10;;;24.70;99.50;;;;;;3556438;40;20866;-61
2021/07/20 01:02:00;;;;;;;20.97;19.20;;;24.70;99.50;;;;;;3552122;40;20481;-62
2021/07/20 01:04:27;;;;;;;22.53;20.70;;;24.70;99.50;;;;;;3559917;40;20470;-61
2021/07/20 01:06:58;;;;;;;21.50;19.60;;;24.70;99.50;;;;;;3555737;40;20628;-61
2021/07/20 01:09:36;;;;;;;22.10;20.30;;;24.70;99.50;;;;;;3546089;40;20465;-61
2021/07/20 01:12:04;;;;;;;22.50;20.33;;;24.70;99.50;;;;;;3545200;40;20493;-61
2021/07/20 01:14:44;;;;;;;22.97;20.80;;;24.70;99.50;;;;;;3545209;40;20473;-61
2021/07/20 01:17:13;;;;;;;22.00;20.00;;;24.70;99.50;;;;;;3554441;40;20466;-61
2021/07/20 01:19:50;;;;;;;21.40;19.13;;;24.70;99.50;;;;;;3555277;40;20469;-62
2021/07/20 01:22:23;;;;;;;22.07;20.07;;;24.70;99.50;;;;;;3561876;40;20449;-61
2021/07/20 01:25:01;;;;;;;24.27;22.07;;;24.70;99.50;;;;;;3554764;40;20817;-61
2021/07/20 01:27:31;;;;;;;24.63;20.73;;;24.70;99.50;;;;;;3545682;40;20485;-61
2021/07/20 01:29:58;;;;;;;23.43;21.33;;;24.70;99.50;;;;;;3554569;40;20498;-61
2021/07/20 01:32:27;;;;;;;22.17;20.17;;;24.70;99.50;;;;;;3546094;40;20518;-60
2021/07/20 01:34:55;;;;;;;23.53;21.33;;;24.70;99.50;;;;;;3546280;40;20443;-61
2021/07/20 01:37:24;;;;;;;21.90;19.77;;;24.70;99.50;;;;;;3553980;40;20444;-61
2021/07/20 01:39:53;;;;;;;22.57;20.60;;;24.70;99.50;;;;;;3554564;40;20438;-61
2021/07/20 01:42:22;;;;;;;22.63;20.53;;;24.70;99.50;;;;;;3554601;40;20634;-61
2021/07/20 01:44:51;;;;;;;20.60;18.90;;;24.70;99.50;;;;;;3546010;40;20465;-61
2021/07/20 01:47:19;;;;;;;21.47;19.57;;;24.60;99.40;;;;;;3555477;40;20466;-61
2021/07/20 01:49:49;;;;;;;22.00;19.97;;;24.70;99.50;;;;;;3546709;40;20801;-60
2021/07/20 01:52:18;;;;;;;21.87;19.80;;;24.70;99.50;;;;;;3554928;40;20470;-61
2021/07/20 01:54:48;;;;;;;22.50;20.60;;;24.70;99.50;;;;;;3546716;40;20450;-61
2021/07/20 01:57:18;;;;;;;22.50;20.37;;;24.70;99.50;;;;;;3546656;40;20469;-61
2021/07/20 02:00:14;;;;;;;23.87;21.83;;;24.70;99.50;;;;;;3555266;40;20471;-61
2021/07/20 02:03:09;;;;;;;23.03;21.00;;;24.70;99.50;;;;;;3555138;40;20469;-61
2021/07/20 02:08:30;;;;;;;21.13;19.37;;;24.70;99.50;;;;;;3555851;40;20450;-61
2021/07/20 02:11:05;;;;;;;21.00;19.20;;;24.70;99.50;;;;;;3556171;40;20552;-60
2021/07/20 02:13:55;;;;;;;21.53;19.73;;;24.70;99.50;;;;;;3556270;40;20485;-61
2021/07/20 02:16:55;;;;;;;21.40;19.60;;;24.70;99.50;;;;;;3527005;40;20488;-61
2021/07/20 02:19:26;;;;;;;21.17;19.20;;;24.70;99.40;;;;;;3545095;40;20454;-60
2021/07/20 02:22:05;;;;;;;20.27;18.63;;;24.60;99.40;;;;;;3545699;40;20505;-61
2021/07/20 02:24:36;;;;;;;22.23;20.23;;;24.60;99.40;;;;;;3554761;40;20458;-61
2021/07/20 02:27:06;;;;;;;21.93;20.10;;;24.70;99.40;;;;;;3554230;40;20493;-61
2021/07/20 02:29:45;;;;;;;22.43;20.43;;;24.60;99.40;;;;;;3545976;40;20458;-61
2021/07/20 02:32:23;;;;;;;21.70;19.90;;;24.60;99.40;;;;;;3545186;40;20484;-61
2021/07/20 02:34:53;;;;;;;22.70;20.83;;;24.60;99.40;;;;;;3554846;40;20498;-61
2021/07/20 02:37:22;;;;;;;23.80;21.40;;;24.60;99.40;;;;;;3545664;40;20473;-60
2021/07/20 02:39:56;;;;;;;21.30;19.50;;;24.60;99.40;;;;;;3545746;40;20458;-61
2021/07/20 02:42:24;;;;;;;20.33;18.73;;;24.60;99.40;;;;;;3546401;40;20469;-61
2021/07/20 02:44:53;;;;;;;22.47;20.43;;;24.60;99.40;;;;;;3546226;40;20704;-60
2021/07/20 02:47:23;;;;;;;21.50;19.70;;;24.60;99.40;;;;;;3545745;40;20493;-61
2021/07/20 02:49:52;;;;;;;21.20;19.40;;;24.60;99.40;;;;;;3545592;40;20620;-61
2021/07/20 02:52:21;;;;;;;21.80;20.00;;;24.60;99.40;;;;;;3554109;40;20478;-61
2021/07/20 02:54:50;;;;;;;21.37;19.57;;;24.60;99.40;;;;;;3545299;40;20462;-60
2021/07/20 02:57:17;;;;;;;22.20;20.30;;;24.60;99.40;;;;;;3545414;40;20457;-61
2021/07/20 02:59:53;;;;;;;22.50;20.40;;;24.60;99.40;;;;;;3545655;40;20501;-61
2021/07/20 03:02:44;;;;;;;21.50;19.30;;;24.60;99.40;;;;;;3545264;40;20537;-61
2021/07/20 03:05:17;;;;;;;21.80;20.00;;;24.60;99.40;;;;;;3553726;40;20461;-61
2021/07/20 03:07:49;;;;;;;23.20;20.50;;;24.60;99.40;;;;;;3561436;40;20453;-61
2021/07/20 03:10:20;;;;;;;21.20;19.40;;;24.60;99.30;;;;;;3554648;40;20458;-61
2021/07/20 03:12:49;;;;;;;22.13;20.23;;;24.60;99.30;;;;;;3554041;40;20843;-61
2021/07/20 03:15:17;;;;;;;20.97;19.03;;;24.60;99.20;;;;;;3562178;40;20517;-61
2021/07/20 03:18:00;;;;;;;22.30;20.27;;;24.60;99.30;;;;;;3545814;40;20441;-61
2021/07/20 03:20:31;;;;;;;20.90;19.13;;;24.60;99.30;;;;;;3554687;40;20556;-61
2021/07/20 03:22:59;;;;;;;21.93;20.17;;;24.60;99.30;;;;;;3554813;40;20728;-61
2021/07/20 03:25:31;;;;;;;21.37;19.50;;;24.60;99.20;;;;;;3537586;40;20478;-61
2021/07/20 03:28:02;;;;;;;22.10;20.10;;;24.60;99.30;;;;;;3545720;40;20478;-61
2021/07/20 03:30:33;;;;;;;22.23;20.13;;;24.60;99.30;;;;;;3554583;40;20525;-61
2021/07/20 03:33:06;;;;;;;22.70;20.90;;;24.60;99.30;;;;;;3553920;40;20481;-61
2021/07/20 03:35:48;;;;;;;21.50;19.80;;;24.60;99.30;;;;;;3544712;40;20465;-61
2021/07/20 03:38:17;;;;;;;21.43;19.67;;;24.60;99.30;;;;;;3537443;40;20481;-60
2021/07/20 03:40:48;;;;;;;20.10;18.40;;;24.60;99.10;;;;;;3545759;40;20540;-61
2021/07/20 03:43:17;;;;;;;21.30;19.60;;;24.60;99.10;;;;;;3545717;40;20543;-61
2021/07/20 03:45:45;;;;;;;21.53;19.73;;;24.60;99.20;;;;;;3545134;40;20482;-60
2021/07/20 03:48:15;;;;;;;21.93;20.13;;;24.60;99.10;;;;;;3545755;40;20457;-61
2021/07/20 03:50:53;;;;;;;24.20;21.90;;;24.60;99.10;;;;;;3554129;40;20461;-61
2021/07/20 03:53:21;;;;;;;21.63;19.77;;;24.60;99.40;;;;;;3554391;40;20461;-61
2021/07/20 03:55:54;;;;;;;21.17;19.47;;;24.60;99.10;;;;;;3544541;40;20531;-61
2021/07/20 03:58:22;;;;;;;21.00;19.30;;;24.60;99.00;;;;;;3553599;40;20465;-61
2021/07/20 04:00:52;;;;;;;20.83;19.10;;;24.60;98.90;;;;;;3553574;40;20485;-61
2021/07/20 04:03:24;;;;;;;21.03;19.10;;;24.60;99.00;;;;;;3544476;40;20465;-60
2021/07/20 04:06:15;;;;;;;20.93;19.23;;;24.60;98.90;;;;;;3545742;40;20522;-61
2021/07/20 04:09:12;;;;;;;22.73;20.70;;;24.60;98.90;;;;;;3555133;40;20472;-61
2021/07/20 04:11:59;;;;;;;21.20;19.50;;;24.60;98.80;;;;;;3555151;40;20453;-61
2021/07/20 04:14:47;;;;;;;22.37;20.53;;;24.60;99.00;;;;;;3554721;40;20481;-60
2021/07/20 04:17:15;;;;;;;23.47;21.47;;;24.60;99.00;;;;;;3553747;40;20517;-61
2021/07/20 04:19:44;;;;;;;22.43;20.63;;;24.60;99.00;;;;;;3554233;40;20540;-61
2021/07/20 04:22:13;;;;;;;22.40;20.67;;;24.60;98.90;;;;;;3545863;40;20853;-61
2021/07/20 04:24:43;;;;;;;22.00;20.20;;;24.60;98.90;;;;;;3554891;40;20528;-61
2021/07/20 04:27:13;;;;;;;21.80;20.10;;;24.60;98.80;;;;;;3545131;40;20535;-60
2021/07/20 04:29:42;;;;;;;23.47;21.47;;;24.60;98.90;;;;;;3553787;40;20446;-61
2021/07/20 04:32:10;;;;;;;23.13;21.37;;;24.60;98.90;;;;;;3553810;40;20752;-61
2021/07/20 04:34:40;;;;;;;23.10;21.07;;;24.60;98.80;;;;;;3553683;40;20469;-60
2021/07/20 04:37:22;;;;;;;20.97;19.37;;;24.60;98.50;;;;;;3553580;40;20444;-60
2021/07/20 04:39:58;;;;;;;21.27;19.67;;;24.60;98.70;;;;;;3554083;40;20459;-61
2021/07/20 04:42:29;;;;;;;22.20;20.30;;;24.60;98.60;;;;;;3553355;40;20453;-61
2021/07/20 04:44:56;;;;;;;21.87;20.20;;;24.60;98.30;;;;;;3552871;40;20540;-61
2021/07/20 04:47:47;;;;;;;22.50;20.80;;;24.60;98.20;;;;;;3545020;40;20889;-61
2021/07/20 04:50:33;;;;;;;22.80;20.93;;;24.60;98.30;;;;;;3543900;40;20730;-61
2021/07/20 04:53:06;;;;;;;22.37;20.30;;;24.60;98.30;;;;;;3553046;40;20474;-61
2021/07/20 04:55:35;;;;;;;21.93;20.23;;;24.60;98.20;;;;;;3543823;40;20446;-61
2021/07/20 04:58:04;;;;;;;23.00;21.20;;;24.60;98.20;;;;;;3552904;40;20682;-61
2021/07/20 05:00:32;;;;;;;23.17;21.17;;;24.60;98.20;;;;;;3551711;40;20438;-61
2021/07/20 05:03:04;;;;;;;21.87;20.03;;;24.60;98.30;;;;;;3543270;40;20451;-61
2021/07/20 05:05:37;;;;;;;23.33;21.47;;;24.60;98.30;;;;;;3541930;40;20487;-61
2021/07/20 05:08:14;;;;;;;21.73;20.03;;;24.60;98.50;;;;;;3533460;40;20466;-61
2021/07/20 05:10:47;;;;;;;23.10;21.20;;;24.60;98.50;;;;;;3542777;40;20462;-61
2021/07/20 05:13:20;;;;;;;21.30;19.60;;;24.50;98.50;;;;;;3549279;40;20481;-61
2021/07/20 05:15:53;;;;;;;21.37;19.57;;;24.60;98.60;;;;;;3532710;40;20471;-61
2021/07/20 05:18:22;;;;;;;23.30;21.50;;;24.60;98.60;;;;;;3549271;40;20466;-61
2021/07/20 05:20:54;;;;;;;23.07;21.07;;;24.60;98.60;;;;;;3533413;40;20510;-61
2021/07/20 05:23:24;;;;;;;22.93;21.13;;;24.60;98.70;;;;;;3531947;40;20554;-61
2021/07/20 05:25:59;;;;;;;23.43;21.43;;;24.60;98.60;;;;;;3532009;40;20486;-61
2021/07/20 05:28:31;;;;;;;23.50;21.40;;;24.60;98.60;;;;;;3541132;40;20474;-61
2021/07/20 05:31:02;;;;;;;22.50;20.77;;;24.60;98.90;;;;;;3532656;40;20467;-61
2021/07/20 05:33:32;;;;;;;22.57;20.57;;;24.60;98.60;;;;;;3532324;40;20463;-61
2021/07/20 05:36:05;;;;;;;22.60;20.80;;;24.60;98.70;;;;;;3532751;40;20561;-62
2021/07/20 05:38:36;;;;;;;22.67;20.70;;;24.60;98.70;;;;;;3540366;40;20525;-61
2021/07/20 05:41:35;;;;;;;22.90;21.00;;;24.60;98.60;;;;;;3531732;40;20485;-61
2021/07/20 05:44:04;;;;;;;22.57;20.67;;;24.60;98.70;;;;;;3532174;40;20478;-61
2021/07/20 05:46:33;;;;;;;22.70;20.80;;;24.60;98.70;;;;;;3523816;40;20802;-60
2021/07/20 05:49:00;;;;;;;23.40;21.30;;;24.60;98.70;;;;;;3540759;40;20478;-61
2021/07/20 05:51:33;;;;;;;22.77;20.90;;;24.60;98.70;;;;;;3540004;40;20458;-61
2021/07/20 05:54:11;;;;;;;21.67;19.90;;;24.60;98.70;;;;;;3540284;40;20789;-61
2021/07/20 05:56:59;;;;;;;23.93;21.57;;;24.60;98.70;;;;;;3539744;40;20711;-60
2021/07/20 05:59:48;;;;;;;19.87;18.37;;;24.60;98.60;;;;;;3515296;40;20924;-64
2021/07/20 06:02:28;;;;;;;21.10;18.90;;;24.50;95.90;;;;;;3528377;40;20482;-64
2021/07/20 06:04:56;;;;;;;18.20;16.80;;;24.20;95.30;;;;;;3527514;40;20474;-64
2021/07/20 06:07:24;;;;;;;19.20;17.50;;;24.00;95.10;;;;;;3522961;40;20530;-64
2021/07/20 06:09:54;;;;;;;19.30;17.60;;;23.80;95.10;;;;;;3527757;40;20536;-62
2021/07/20 06:12:23;;;;;;;18.90;17.50;;;23.70;95.20;;;;;;3537176;40;21126;-62
2021/07/20 06:14:52;;;;;;;18.97;17.50;;;23.60;95.60;;;;;;3527727;40;20478;-62
2021/07/20 06:17:23;;;;;;;20.17;18.50;;;23.50;95.40;;;;;;3529377;40;20501;-62
2021/07/20 06:19:51;;;;;;;18.70;17.10;;;23.50;95.30;;;;;;3537415;40;20483;-64
2021/07/20 06:22:22;;;;;;;19.80;18.00;;;23.40;95.30;;;;;;3528517;40;20447;-64
2021/07/20 06:25:00;;;;;;;17.10;15.73;;;23.40;95.30;;;;;;3531236;40;20469;-64
2021/07/20 06:27:30;;;;;;;18.10;16.63;;;23.40;95.20;;;;;;3523131;40;20633;-63
2021/07/20 06:30:00;;;;;;;18.70;17.20;;;23.20;95.20;;;;;;3538675;40;20755;-63
2021/07/20 06:32:31;;;;;;;19.60;17.90;;;23.30;95.30;;;;;;3522266;40;20571;-63
2021/07/20 06:34:58;;;;;;;20.43;18.90;;;23.20;95.30;;;;;;3521206;40;20584;-63
2021/07/20 06:37:26;;;;;;;18.30;16.80;;;23.10;95.30;;;;;;3520250;40;20481;-63
2021/07/20 06:39:54;;;;;;;17.97;16.57;;;23.10;95.60;;;;;;3517617;40;21157;-63
2021/07/20 06:42:24;;;;;;;17.83;16.63;;;23.10;95.80;;;;;;3518889;40;21065;-63
2021/07/20 06:44:51;;;;;;;20.70;16.93;;;23.10;95.70;;;;;;3518105;40;20459;-63
2021/07/20 06:47:20;;;;;;;17.43;16.10;;;23.30;95.80;;;;;;3519016;40;20482;-63
2021/07/20 06:49:49;;;;;;;18.60;17.10;;;23.30;95.70;;;;;;3518694;40;20705;-63
2021/07/20 06:52:17;;;;;;;19.73;17.90;;;23.40;95.70;;;;;;3520885;40;20454;-63
2021/07/20 06:54:45;;;;;;;18.57;17.37;;;23.50;95.50;;;;;;3517223;40;20634;-63
2021/07/20 06:57:16;;;;;;;17.73;16.43;;;23.40;95.70;;;;;;3518026;40;20711;-63
2021/07/20 06:59:47;;;;;;;19.00;17.60;;;23.50;95.80;;;;;;3515487;40;20586;-63
2021/07/20 07:02:19;;;;;;;19.37;17.90;;;23.60;95.70;;;;;;3515562;40;21121;-63
2021/07/20 07:04:53;;;;;;;18.90;17.33;;;23.70;95.80;;;;;;3514573;40;20688;-63
2021/07/20 07:07:21;;;;;;;18.93;17.33;;;23.80;95.60;;;;;;3519535;40;20461;-63
2021/07/20 07:09:50;;;;;;;18.40;16.93;;;23.80;95.20;;;;;;3519780;40;20459;-63
2021/07/20 07:12:20;;;;;;;20.03;18.53;;;23.80;95.30;;;;;;3518535;40;20826;-63
2021/07/20 07:14:53;;;;;;;20.13;18.43;;;23.90;95.40;;;;;;3518331;40;20489;-63
2021/07/20 07:17:21;;;;;;;18.57;17.27;;;23.90;95.30;;;;;;3519197;40;20482;-63
2021/07/20 07:19:51;;;;;;;19.43;17.83;;;24.00;95.50;;;;;;3519333;40;20458;-63
2021/07/20 07:22:20;;;;;;;19.87;18.00;;;24.00;95.40;;;;;;3519308;40;20459;-63
2021/07/20 07:24:48;;;;;;;20.57;18.70;;;24.00;95.40;;;;;;3515570;40;20466;-63
2021/07/20 07:27:17;;;;;;;18.50;17.13;;;24.00;95.30;;;;;;3521475;40;20478;-62
2021/07/20 07:29:45;;;;;;;19.60;18.13;;;24.00;95.40;;;;;;3523008;40;20573;-63
2021/07/20 07:32:14;;;;;;;19.33;17.73;;;24.00;95.50;;;;;;3521457;40;20838;-63
2021/07/20 07:34:43;;;;;;;19.53;18.00;;;23.80;95.20;;;;;;3519212;40;20938;-63
2021/07/20 07:37:10;;;;;;;19.40;18.00;;;23.80;95.50;;;;;;3519706;40;20463;-63
2021/07/20 07:39:39;;;;;;;19.53;18.03;;;23.80;95.70;;;;;;3513777;40;20709;-63
2021/07/20 07:42:08;;;;;;;21.47;19.97;;;23.90;95.80;;;;;;3514861;40;20475;-63
2021/07/20 07:44:36;;;;;;;19.10;17.90;;;24.00;95.90;;;;;;3513905;40;20629;-63
2021/07/20 07:47:05;;;;;;;18.07;16.87;;;24.00;95.60;;;;;;3524393;40;20513;-63
2021/07/20 07:49:34;;;;;;;18.50;17.23;;;24.00;95.60;;;;;;3514921;40;20767;-63
2021/07/20 07:52:02;;;;;;;19.77;18.07;;;24.00;95.70;;;;;;3512549;40;20600;-63
2021/07/20 07:54:29;;;;;;;20.23;18.73;;;23.90;95.50;;;;;;3499473;40;20785;-63
2021/07/20 07:56:56;;;;;;;19.00;17.50;;;24.00;95.70;;;;;;3516750;40;20737;-63
2021/07/20 07:59:26;;;;;;;18.77;17.43;;;24.10;95.80;;;;;;3504593;40;20517;-63
2021/07/20 08:01:56;;;;;;;17.93;16.63;;;24.10;95.90;;;;;;3515254;40;20628;-63
2021/07/20 08:04:27;;;;;;;19.83;18.30;;;24.20;95.90;;;;;;3515353;40;20583;-63
2021/07/20 08:06:58;;;;;;;19.53;17.67;;;24.20;96.00;;;;;;3515821;40;20680;-63
2021/07/20 08:09:27;;;;;;;18.97;17.33;;;24.30;96.00;;;;;;3516399;40;21220;-62
2021/07/20 08:11:57;;;;;;;19.40;17.83;;;24.30;95.90;;;;;;3516280;40;20478;-63
2021/07/20 08:14:24;;;;;;;19.47;17.53;;;24.30;95.90;;;;;;3519530;40;20478;-63
2021/07/20 08:16:58;;;;;;;19.97;18.20;;;24.40;95.80;;;;;;3517852;40;21178;-63
2021/07/20 08:19:27;;;;;;;19.70;18.20;;;24.40;95.90;;;;;;3513903;40;20798;-64
2021/07/20 08:22:00;;;;;;;20.33;18.63;;;24.40;95.80;;;;;;3518103;40;20474;-63
2021/07/20 08:24:34;;;;;;;19.10;17.80;;;24.40;95.70;;;;;;3518501;40;20483;-63
2021/07/20 08:27:12;;;;;;;20.83;19.00;;;24.40;95.50;;;;;;3526536;40;20468;-63
2021/07/20 08:29:44;;;;;;;20.63;18.87;;;24.40;95.50;;;;;;3525664;40;20481;-63
2021/07/20 08:32:14;;;;;;;19.40;18.00;;;24.40;95.70;;;;;;3526068;40;20517;-63
2021/07/20 08:34:45;;;;;;;18.87;17.47;;;24.40;95.80;;;;;;3529890;40;20532;-63
2021/07/20 08:37:16;;;;;;;19.57;18.07;;;24.40;95.70;;;;;;3529599;40;20478;-63
2021/07/20 08:39:48;;;;;;;19.03;17.67;;;24.40;95.70;;;;;;3528568;40;20469;-63
2021/07/20 08:42:33;;;;;;;19.80;18.37;;;24.40;95.80;;;;;;3517210;40;20584;-63
2021/07/20 08:45:09;;;;;;;20.77;18.97;;;24.50;96.00;;;;;;3518746;40;20459;-63
2021/07/20 08:48:09;;;;;;;19.10;17.90;;;24.50;95.90;;;;;;3519743;40;20466;-63
2021/07/20 08:50:41;;;;;;;19.97;18.37;;;24.50;95.90;;;;;;3523471;40;21050;-63
2021/07/20 08:53:24;;;;;;;19.87;18.27;;;24.50;95.90;;;;;;3520158;40;20514;-63
2021/07/20 08:55:54;;;;;;;18.97;17.50;;;24.50;96.00;;;;;;3521222;40;20455;-63
2021/07/20 08:58:28;;;;;;;19.37;17.97;;;24.50;95.60;;;;;;3511400;40;20474;-63
2021/07/20 09:01:02;;;;;;;20.37;18.80;;;24.40;95.00;;;;;;3520497;40;20479;-63
2021/07/20 09:03:42;;;;;;;18.83;17.53;;;24.40;95.20;;;;;;3521085;40;21018;-63
2021/07/20 09:06:13;;;;;;;20.53;18.83;;;24.50;95.50;;;;;;3519087;40;20462;-63
2021/07/20 09:08:52;;;;;;;20.37;18.60;;;24.50;95.50;;;;;;3521171;40;20458;-63
2021/07/20 09:11:29;;;;;;;20.70;19.13;;;24.50;95.50;;;;;;3511734;40;20972;-63
2021/07/20 09:14:10;;;;;;;20.07;18.57;;;24.50;95.60;;;;;;3513138;40;20497;-63
2021/07/20 09:16:43;;;;;;;19.83;18.27;;;24.50;95.70;;;;;;3519316;40;20467;-63
2021/07/20 09:19:20;;;;;;;19.27;17.70;;;24.40;95.10;;;;;;3509176;40;21307;-63
2021/07/20 09:21:51;;;;;;;20.30;18.50;;;24.50;95.30;;;;;;3507550;40;20475;-60
2021/07/20 09:24:30;;;;;;;19.73;18.23;;;24.50;95.40;;;;;;3508422;40;20483;-60
2021/07/20 09:27:09;;;;;;;20.63;18.93;;;24.50;95.60;;;;;;3507013;40;20471;-60
2021/07/20 09:29:39;;;;;;;21.60;19.97;;;24.50;95.60;;;;;;3511760;40;20485;-60
2021/07/20 09:32:14;;;;;;;19.77;18.17;;;24.50;95.70;;;;;;3515706;40;20467;-60
2021/07/20 09:34:58;;;;;;;19.63;18.00;;;24.50;95.80;;;;;;3519758;40;20564;-60
2021/07/20 09:37:38;;;;;;;21.03;19.37;;;24.50;95.90;;;;;;3508758;40;20546;-61
2021/07/20 09:40:18;;;;;;;18.80;17.40;;;24.60;95.90;;;;;;3513936;40;21110;-60
2021/07/20 09:43:00;;;;;;;23.80;19.10;;;24.60;96.00;;;;;;3515614;40;20540;-61
2021/07/20 09:45:33;;;;;;;21.07;19.37;;;24.60;96.00;;;;;;3514104;40;20566;-59
2021/07/20 09:48:07;;;;;;;20.57;18.97;;;24.60;96.00;;;;;;3513874;40;20459;-61
2021/07/20 09:50:41;;;;;;;20.60;19.00;;;24.50;95.90;;;;;;3512081;40;20462;-59
2021/07/20 09:53:43;;;;;;;18.03;16.63;;;24.60;96.00;;;;;;3510653;40;21006;-60
2021/07/20 09:56:38;;;;;;;21.30;19.60;;;24.60;95.90;;;;;;3463969;40;20482;-61
2021/07/20 09:59:16;;;;;;;21.63;20.07;;;24.60;95.90;;;;;;3506459;40;20542;-59
2021/07/20 10:01:52;;;;;;;21.77;19.67;;;24.60;96.00;;;;;;3515259;40;20511;-60
2021/07/20 10:04:26;;;;;;;19.47;18.07;;;24.60;96.10;;;;;;3514019;40;20473;-61
2021/07/20 10:07:02;;;;;;;22.27;20.50;;;24.60;96.10;;;;;;3500735;40;20478;-61
2021/07/20 10:09:41;;;;;;;24.70;22.40;;;24.60;96.10;;;;;;3516057;40;21161;-60
2021/07/20 10:12:21;;;;;;;23.57;21.47;;;24.60;96.10;;;;;;3517587;40;20462;-60
2021/07/20 10:14:57;;;;;;;21.37;19.63;;;24.60;96.10;;;;;;3516460;40;20553;-60
2021/07/20 10:17:31;;;;;;;22.53;20.50;;;24.50;94.50;;;;;;3517114;40;20470;-60
2021/07/20 10:20:05;;;;;;;21.57;19.93;;;24.40;93.80;;;;;;3517191;40;20463;-60
2021/07/20 10:22:39;;;;;;;20.90;19.10;;;24.40;93.70;;;;;;3517432;40;20450;-61
2021/07/20 10:25:14;;;;;;;21.97;19.87;;;24.40;94.10;;;;;;3517398;40;21063;-61
2021/07/20 10:27:51;;;;;;;20.90;19.20;;;24.50;94.40;;;;;;3507558;40;21265;-60
2021/07/20 10:30:23;;;;;;;23.63;21.53;;;24.50;94.60;;;;;;3505082;40;20594;-58
2021/07/20 10:33:01;;;;;;;24.47;21.97;;;24.50;94.70;;;;;;3517144;40;21195;-60
2021/07/20 10:35:36;;;;;;;24.07;21.93;;;24.60;95.30;;;;;;3511276;40;20476;-60
2021/07/20 10:38:15;;;;;;;23.23;21.30;;;24.60;95.10;;;;;;3514132;40;20498;-60
2021/07/20 10:40:43;;;;;;;22.40;20.40;;;24.60;95.10;;;;;;3520907;40;20510;-59
2021/07/20 10:43:19;;;;;;;24.40;22.50;;;24.60;95.10;;;;;;3517387;40;20482;-60
2021/07/20 10:45:49;;;;;;;24.17;22.27;;;24.60;95.10;;;;;;3514213;40;20509;-58
2021/07/20 10:48:22;;;;;;;24.13;22.13;;;24.60;95.50;;;;;;3519204;40;20734;-60
2021/07/20 10:50:54;;;;;;;25.40;23.20;;;24.60;95.20;;;;;;3519933;40;20463;-60
2021/07/20 10:53:37;;;;;;;23.63;21.63;;;24.60;95.20;;;;;;3519356;40;20474;-60
2021/07/20 10:56:17;;;;;;;26.67;24.50;;;24.60;95.20;;;;;;3522705;40;20513;-60
2021/07/20 10:59:01;;;;;;;24.83;22.77;;;24.60;95.10;;;;;;3529467;40;21029;-60
2021/07/20 11:01:36;;;;;;;24.97;22.80;;;24.60;95.10;;;;;;3528693;40;20474;-60
2021/07/20 11:04:29;;;;;;;23.17;20.97;;;24.60;95.00;;;;;;3527615;40;20477;-59
2021/07/20 11:07:01;;;;;;;23.20;21.43;;;24.60;94.10;;;;;;3517419;40;21036;-59
2021/07/20 11:09:32;;;;;;;22.63;20.87;;;24.60;94.50;;;;;;3527324;40;20514;-60
2021/07/20 11:12:03;;;;;;;21.07;19.40;;;24.60;93.80;;;;;;3528834;40;20458;-59
2021/07/20 11:14:37;;;;;;;23.30;21.50;;;24.50;92.50;;;;;;3530939;40;20481;-58
2021/07/20 11:17:06;;;;;;;24.50;22.37;;;24.50;93.10;;;;;;3520807;40;21210;-58
2021/07/20 11:19:34;;;;;;;22.03;20.33;;;24.50;93.60;;;;;;3529560;40;20481;-58
2021/07/20 11:22:04;;;;;;;22.90;21.13;;;24.60;93.90;;;;;;3532929;40;20458;-59
2021/07/20 11:24:34;;;;;;;22.60;20.80;;;24.60;94.00;;;;;;3532679;40;20571;-59
2021/07/20 11:27:05;;;;;;;23.03;21.13;;;24.60;94.10;;;;;;3532220;40;20669;-60
2021/07/20 11:29:35;;;;;;;22.70;20.80;;;24.60;94.10;;;;;;3529818;40;21106;-56
2021/07/20 11:32:09;;;;;;;23.53;21.60;;;24.60;94.20;;;;;;3530091;40;20579;-55
2021/07/20 11:34:41;;;;;;;22.87;21.17;;;24.60;93.80;;;;;;3530538;40;20489;-57
2021/07/20 11:37:15;;;;;;;23.10;21.30;;;24.60;93.70;;;;;;3532463;40;20465;-56
2021/07/20 11:39:59;;;;;;;24.93;22.73;;;24.60;93.80;;;;;;3529391;40;20477;-57
2021/07/20 11:42:36;;;;;;;25.60;23.43;;;24.60;93.90;;;;;;3531192;40;20484;-62
2021/07/20 11:45:09;;;;;;;24.30;22.20;;;24.60;94.10;;;;;;3538418;40;20487;-62
2021/07/20 11:47:47;;;;;;;25.23;23.17;;;24.60;94.10;;;;;;3531359;40;20489;-62
2021/07/20 11:50:25;;;;;;;24.93;22.83;;;24.60;94.00;;;;;;3537475;40;20473;-62
2021/07/20 11:53:03;;;;;;;24.10;22.10;;;24.60;94.00;;;;;;3535525;40;21101;-62
2021/07/20 11:55:40;;;;;;;23.47;21.47;;;24.60;93.90;;;;;;3525281;40;20488;-62
2021/07/20 11:58:42;;;;;;;23.70;21.80;;;24.60;93.90;;;;;;3525993;40;20454;-62
2021/07/20 12:01:47;;;;;;;24.33;22.17;;;24.60;93.90;;;;;;3533536;40;20485;-62
2021/07/20 12:04:56;;;;;;;21.90;20.00;;;24.60;94.40;;;;;;3501699;40;20480;-62
2021/07/20 12:07:40;;;;;;;22.90;21.10;;;24.60;93.40;;;;;;3501445;40;20831;-62
2021/07/20 12:10:36;;;;;;;23.20;21.33;;;24.60;93.50;;;;;;3511238;40;20886;-62
2021/07/20 12:13:13;;;;;;;25.00;22.60;;;24.60;93.70;;;;;;3497499;40;21156;-62
2021/07/20 12:15:41;;;;;;;22.33;20.33;;;24.60;93.50;;;;;;3497979;40;20880;-62
2021/07/20 12:18:11;;;;;;;23.50;21.43;;;24.60;93.80;;;;;;3507726;40;20476;-62
2021/07/20 12:20:43;;;;;;;23.70;21.80;;;24.60;93.50;;;;;;3511555;40;20505;-62
2021/07/20 12:23:14;;;;;;;23.90;21.83;;;24.60;93.30;;;;;;3509290;40;20500;-63
2021/07/20 12:25:42;;;;;;;24.73;22.73;;;24.60;93.20;;;;;;3504253;40;21091;-62
2021/07/20 12:28:11;;;;;;;24.07;21.97;;;24.60;93.20;;;;;;3505305;40;20903;-62
2021/07/20 12:30:41;;;;;;;22.80;20.70;;;24.60;93.30;;;;;;3505675;40;20525;-60
2021/07/20 12:33:16;;;;;;;22.03;19.93;;;24.60;93.30;;;;;;3527291;40;20510;-62
2021/07/20 12:35:49;;;;;;;22.50;20.40;;;24.60;93.30;;;;;;3538281;40;20465;-62
2021/07/20 12:38:33;;;;;;;21.40;19.70;;;24.60;93.30;;;;;;3527974;40;20485;-60
2021/07/20 12:41:16;;;;;;;24.03;22.07;;;24.60;93.40;;;;;;3545132;40;20473;-62
2021/07/20 12:43:47;;;;;;;23.50;21.50;;;24.60;93.40;;;;;;3543730;40;20894;-62
2021/07/20 12:46:23;;;;;;;24.80;22.60;;;24.60;93.30;;;;;;3536985;40;20455;-62
2021/07/20 12:48:52;;;;;;;23.70;21.60;;;24.60;93.30;;;;;;3527383;40;20482;-62
2021/07/20 12:51:29;;;;;;;23.83;21.73;;;24.60;93.20;;;;;;3529545;40;20885;-62
2021/07/20 12:54:05;;;;;;;21.93;20.33;;;24.60;93.20;;;;;;3532486;40;20482;-62
2021/07/20 12:56:34;;;;;;;22.00;20.30;;;24.60;93.20;;;;;;3538416;40;20470;-62
2021/07/20 12:59:04;;;;;;;24.07;21.83;;;24.60;93.20;;;;;;3533354;40;20477;-62
2021/07/20 13:01:39;;;;;;;23.70;21.60;;;24.60;93.20;;;;;;3541496;40;20553;-62
2021/07/20 13:04:12;;;;;;;23.53;21.53;;;24.60;93.20;;;;;;3541733;40;20541;-62